Time;durP1;ratioP1;P1;durP2;ratioP2;P2;SDS_P1;SDS_P2;PMS_P1;PMS_P2;Temp;Humidity;BMP_temperature;BMP_pressure;BME280_temperature;BME280_humidity;BME280_pressure;Samples;Min_cycle;Max_cycle;Signal;HPM_P1;HPM_P2
2023/08/27 00:00:35;;;;;;;;;1.00;0.00;;;;;18.16;56.79;100837.13;5091527;27;45375;-55
2023/08/27 00:03:01;;;;;;;;;0.00;0.00;;;;;18.16;56.67;100825.47;5089614;27;63532;-55
2023/08/27 00:05:26;;;;;;;;;0.00;0.00;;;;;18.16;57.09;100828.19;5085628;27;66575;-56
2023/08/27 00:07:52;;;;;;;;;1.00;1.00;;;;;18.16;56.91;100822.78;5095631;27;64873;-55
2023/08/27 00:10:17;;;;;;;;;2.00;1.00;;;;;18.15;57.22;100829.19;5084964;27;70848;-55
2023/08/27 00:12:43;;;;;;;;;1.33;1.00;;;;;18.16;56.95;100831.75;5085154;27;69393;-55
2023/08/27 00:15:08;;;;;;;;;0.00;0.00;;;;;18.14;57.26;100822.94;5070467;27;45623;-55
2023/08/27 00:17:34;;;;;;;;;0.00;0.00;;;;;18.12;57.92;100818.66;5081552;27;45519;-54
2023/08/27 00:20:00;;;;;;;;;0.00;0.00;;;;;18.11;57.87;100820.50;5070794;27;45439;-55
2023/08/27 00:22:26;;;;;;;;;0.33;0.33;;;;;18.10;58.58;100820.63;5077983;27;45555;-55
2023/08/27 00:24:51;;;;;;;;;1.00;1.00;;;;;18.08;58.84;100819.88;5097479;27;45391;-55
2023/08/27 00:27:16;;;;;;;;;1.00;1.00;;;;;18.06;58.53;100822.72;5083579;27;71612;-54
2023/08/27 00:29:42;;;;;;;;;0.33;0.33;;;;;18.02;58.60;100814.03;5087104;27;45481;-55
2023/08/27 00:32:07;;;;;;;;;0.00;0.00;;;;;18.01;59.14;100822.22;5094296;27;45722;-55
2023/08/27 00:34:35;;;;;;;;;0.33;0.33;;;;;17.98;58.94;100823.31;5083226;27;45481;-54
2023/08/27 00:37:01;;;;;;;;;1.00;1.00;;;;;17.97;59.56;100824.31;5089240;27;55507;-55
2023/08/27 00:39:28;;;;;;;;;1.00;1.00;;;;;17.94;59.67;100815.63;5088296;27;45506;-55
2023/08/27 00:41:53;;;;;;;;;1.00;1.00;;;;;17.93;59.79;100814.78;5087651;27;45565;-55
2023/08/27 00:44:19;;;;;;;;;1.00;1.00;;;;;17.92;59.84;100812.19;5082961;27;55166;-54
2023/08/27 00:46:44;;;;;;;;;1.00;1.00;;;;;17.89;59.50;100813.28;5094058;27;46997;-55
2023/08/27 00:49:11;;;;;;;;;1.33;0.00;;;;;17.88;59.99;100811.56;5081289;27;68795;-55
2023/08/27 00:51:37;;;;;;;;;0.00;0.00;;;;;17.85;59.92;100812.66;5083591;27;45579;-54
2023/08/27 00:54:04;;;;;;;;;0.00;0.00;;;;;17.85;59.76;100806.44;5083788;27;69182;-53
2023/08/27 00:56:30;;;;;;;;;0.00;0.00;;;;;17.82;59.75;100809.34;5092516;27;46353;-55
2023/08/27 00:58:55;;;;;;;;;0.33;0.33;;;;;17.80;59.96;100814.03;5097117;27;45501;-55
2023/08/27 01:01:22;;;;;;;;;0.00;0.00;;;;;17.77;60.09;100814.25;5096943;27;62175;-55
2023/08/27 01:03:48;;;;;;;;;0.67;0.00;;;;;17.75;60.04;100810.84;5093201;27;45457;-55
2023/08/27 01:06:13;;;;;;;;;0.00;0.00;;;;;17.74;60.06;100819.88;5073057;27;74191;-55
2023/08/27 01:08:51;;;;;;;;;1.00;1.00;;;;;17.72;60.30;100814.63;5091169;27;60997;-55
2023/08/27 01:11:28;;;;;;;;;0.33;0.33;;;;;17.69;60.55;100822.94;5095519;27;45427;-55
2023/08/27 01:13:57;;;;;;;;;1.00;1.00;;;;;17.57;60.35;100808.63;5076799;27;45444;-54
2023/08/27 01:16:23;;;;;;;;;0.67;0.67;;;;;17.50;60.82;100810.13;5078543;27;46118;-55
2023/08/27 01:18:49;;;;;;;;;0.33;0.33;;;;;17.48;60.73;100807.56;5088994;27;45553;-55
2023/08/27 01:21:24;;;;;;;;;2.33;1.00;;;;;17.48;60.92;100809.38;5100810;27;45457;-55
2023/08/27 01:23:50;;;;;;;;;0.00;0.00;;;;;17.49;61.01;100811.09;5091765;27;45621;-55
2023/08/27 01:26:27;;;;;;;;;0.00;0.00;;;;;17.48;60.89;100806.69;5086069;27;46353;-55
2023/08/27 01:29:08;;;;;;;;;2.00;2.00;;;;;17.43;61.28;100803.50;5076210;27;45331;-54
2023/08/27 01:31:39;;;;;;;;;0.00;0.00;;;;;17.40;61.89;100811.81;5084302;27;45634;-54
2023/08/27 01:34:05;;;;;;;;;2.00;2.00;;;;;17.35;61.43;100799.59;5071851;27;45465;-56
2023/08/27 01:36:34;;;;;;;;;1.00;1.00;;;;;17.35;61.77;100798.72;5100036;27;46392;-55
2023/08/27 01:39:00;;;;;;;;;1.00;1.00;;;;;17.36;61.79;100800.44;5074873;27;45635;-55
2023/08/27 01:41:25;;;;;;;;;1.33;1.33;;;;;17.34;61.58;100789.81;5094119;27;63353;-55
2023/08/27 01:43:51;;;;;;;;;1.00;1.00;;;;;17.33;61.67;100790.78;5087513;27;68347;-55
2023/08/27 01:46:16;;;;;;;;;1.00;1.00;;;;;17.29;61.90;100792.00;5082610;27;69295;-55
2023/08/27 01:48:41;;;;;;;;;0.00;0.00;;;;;17.26;62.24;100800.31;5091483;27;70560;-55
2023/08/27 01:51:06;;;;;;;;;1.67;1.67;;;;;17.25;62.46;100803.97;5097888;27;58675;-55
2023/08/27 01:53:32;;;;;;;;;1.00;1.00;;;;;17.25;62.63;100797.72;5094053;27;71054;-55
2023/08/27 01:55:58;;;;;;;;;0.33;0.33;;;;;17.24;62.63;100798.72;5070264;27;46240;-55
2023/08/27 01:58:23;;;;;;;;;1.00;1.00;;;;;17.23;62.96;100800.53;5084424;27;45471;-55
2023/08/27 02:00:49;;;;;;;;;3.75;1.00;;;;;17.23;62.55;100805.06;5089610;27;45974;-53
2023/08/27 02:03:15;;;;;;;;;1.00;1.00;;;;;17.22;62.87;100801.50;5095141;27;45345;-56
2023/08/27 02:05:40;;;;;;;;;0.00;0.00;;;;;17.18;62.97;100808.97;5085568;27;52345;-56
2023/08/27 02:08:06;;;;;;;;;1.00;1.00;;;;;17.15;63.33;100806.50;5090946;27;70950;-56
2023/08/27 02:10:31;;;;;;;;;0.67;0.67;;;;;17.13;63.29;100811.16;5093625;27;45418;-55
2023/08/27 02:12:56;;;;;;;;;0.00;0.00;;;;;17.13;63.53;100810.28;5090706;27;62378;-55
2023/08/27 02:15:21;;;;;;;;;0.00;0.00;;;;;17.13;63.26;100811.16;5080890;27;46027;-56
2023/08/27 02:17:47;;;;;;;;;1.00;1.00;;;;;17.11;63.36;100818.47;5091482;27;62420;-55
2023/08/27 02:20:12;;;;;;;;;1.00;1.00;;;;;17.10;63.68;100815.91;5092162;27;68315;-54
2023/08/27 02:22:37;;;;;;;;;1.00;1.00;;;;;17.10;63.88;100816.75;5094295;27;70165;-55
2023/08/27 02:25:04;;;;;;;;;0.33;0.33;;;;;17.07;63.60;100817.00;5092372;27;46122;-55
2023/08/27 02:27:29;;;;;;;;;1.00;1.00;;;;;17.03;63.61;100810.16;5086760;27;45590;-55
2023/08/27 02:29:54;;;;;;;;;0.00;0.00;;;;;17.01;63.77;100804.91;5088996;27;62687;-56
2023/08/27 02:32:20;;;;;;;;;1.00;1.00;;;;;17.02;63.70;100808.44;5092643;27;51212;-55
2023/08/27 02:34:45;;;;;;;;;1.00;1.00;;;;;17.01;63.58;100810.28;5085667;27;46691;-54
2023/08/27 02:37:10;;;;;;;;;0.00;0.00;;;;;17.00;63.75;100813.94;5085528;27;62541;-56
2023/08/27 02:39:36;;;;;;;;;1.33;1.00;;;;;17.00;63.89;100810.38;5074307;27;70600;-55
2023/08/27 02:42:02;;;;;;;;;0.00;0.00;;;;;16.99;63.66;100801.47;5093613;27;69200;-56
2023/08/27 02:44:27;;;;;;;;;0.00;0.00;;;;;16.97;63.65;100803.44;5084499;27;46466;-55
2023/08/27 02:46:53;;;;;;;;;1.00;1.00;;;;;16.94;63.45;100795.59;5083872;27;70410;-54
2023/08/27 02:49:18;;;;;;;;;2.00;1.00;;;;;16.94;63.90;100800.13;5084198;27;69355;-55
2023/08/27 02:51:43;;;;;;;;;1.00;1.00;;;;;16.91;62.73;100793.16;5088051;27;66010;-55
2023/08/27 02:54:09;;;;;;;;;0.00;0.00;;;;;16.85;63.49;100797.13;5080754;27;67229;-55
2023/08/27 02:56:34;;;;;;;;;2.00;1.00;;;;;16.81;64.29;100801.03;5079767;27;69101;-54
2023/08/27 02:58:59;;;;;;;;;0.00;0.00;;;;;16.78;64.30;100797.72;5095625;27;45640;-55
2023/08/27 03:01:25;;;;;;;;;0.33;0.33;;;;;16.74;63.69;100802.47;5086603;27;68933;-53
2023/08/27 03:03:50;;;;;;;;;1.00;1.00;;;;;16.68;64.45;100806.47;5087376;27;46116;-55
2023/08/27 03:06:16;;;;;;;;;3.00;0.67;;;;;16.65;64.41;100805.88;5093452;27;45457;-55
2023/08/27 03:08:42;;;;;;;;;0.00;0.00;;;;;16.61;64.51;100812.41;5086689;27;45477;-54
2023/08/27 03:11:07;;;;;;;;;1.00;1.00;;;;;16.60;64.46;100808.03;5095008;27;45367;-55
2023/08/27 03:13:33;;;;;;;;;0.33;0.00;;;;;16.58;64.73;100813.50;5090089;27;56280;-55
2023/08/27 03:15:58;;;;;;;;;2.00;1.00;;;;;16.56;64.31;100812.78;5085739;27;62717;-56
2023/08/27 03:18:24;;;;;;;;;2.67;0.00;;;;;16.53;64.48;100804.94;5088636;27;45748;-55
2023/08/27 03:20:50;;;;;;;;;1.00;1.00;;;;;16.51;65.16;100804.22;5093576;27;45356;-55
2023/08/27 03:23:15;;;;;;;;;3.00;1.00;;;;;16.48;64.91;100807.13;5070910;27;46990;-55
2023/08/27 03:25:40;;;;;;;;;1.00;1.00;;;;;16.46;65.91;100817.13;5090392;27;63104;-55
2023/08/27 03:28:06;;;;;;;;;1.00;1.00;;;;;16.44;65.22;100811.00;5088822;27;66227;-53
2023/08/27 03:30:40;;;;;;;;;1.00;1.00;;;;;16.43;65.63;100809.31;5112272;27;45649;-54
2023/08/27 03:33:06;;;;;;;;;1.00;1.00;;;;;16.40;65.06;100809.53;5094622;27;45548;-55
2023/08/27 03:35:31;;;;;;;;;0.67;0.67;;;;;16.36;65.57;100811.56;5093674;27;45433;-54
2023/08/27 03:37:57;;;;;;;;;0.67;0.67;;;;;16.36;65.82;100819.63;5094704;27;45365;-55
2023/08/27 03:40:22;;;;;;;;;0.00;0.00;;;;;16.33;65.34;100818.03;5092877;27;68340;-55
2023/08/27 03:42:47;;;;;;;;;0.00;0.00;;;;;16.31;65.26;100824.47;5093271;27;68797;-54
2023/08/27 03:45:13;;;;;;;;;1.00;1.00;;;;;16.25;65.39;100822.25;5090290;27;46035;-55
2023/08/27 03:47:38;;;;;;;;;1.00;1.00;;;;;16.20;65.95;100826.16;5094325;27;45500;-55
2023/08/27 03:50:04;;;;;;;;;0.67;0.00;;;;;16.17;66.22;100830.88;5094032;27;55849;-55
2023/08/27 03:52:30;;;;;;;;;2.00;1.00;;;;;16.14;66.34;100836.44;5094533;27;45438;-53
2023/08/27 03:54:55;;;;;;;;;0.00;0.00;;;;;16.14;66.72;100839.13;5093941;27;45419;-54
2023/08/27 03:57:21;;;;;;;;;1.67;1.67;;;;;16.11;66.84;100834.00;5093470;27;45813;-55
2023/08/27 03:59:46;;;;;;;;;2.00;2.00;;;;;16.07;65.74;100835.19;5094698;27;46220;-54
2023/08/27 04:02:12;;;;;;;;;1.00;1.00;;;;;16.03;65.86;100835.44;5093746;27;65977;-55
2023/08/27 04:04:37;;;;;;;;;1.00;1.00;;;;;16.01;66.50;100834.66;5092985;27;45303;-55
2023/08/27 04:07:03;;;;;;;;;2.00;1.00;;;;;16.01;66.69;100847.25;5090620;27;45642;-55
2023/08/27 04:09:28;;;;;;;;;1.00;1.00;;;;;16.02;66.90;100843.56;5090921;27;45770;-55
2023/08/27 04:11:53;;;;;;;;;1.67;0.00;;;;;16.02;66.64;100855.16;5090265;27;45650;-55
2023/08/27 04:14:19;;;;;;;;;4.00;1.00;;;;;16.01;67.59;100850.75;5089248;27;70634;-54
2023/08/27 04:16:44;;;;;;;;;0.33;0.33;;;;;16.01;67.12;100850.75;5087857;27;64394;-58
2023/08/27 04:19:09;;;;;;;;;1.00;1.00;;;;;16.00;67.21;100858.94;5090469;27;46882;-57
2023/08/27 04:21:35;;;;;;;;;2.00;0.67;;;;;16.00;67.30;100850.88;5090834;27;45379;-60
2023/08/27 04:24:00;;;;;;;;;2.67;0.00;;;;;16.00;67.12;100848.19;5090150;27;52923;-56
2023/08/27 04:26:25;;;;;;;;;1.00;1.00;;;;;16.01;67.82;100844.56;5090139;27;60745;-54
2023/08/27 04:28:51;;;;;;;;;2.00;0.33;;;;;15.99;67.13;100844.63;5094465;27;71188;-54
2023/08/27 04:31:16;;;;;;;;;0.00;0.00;;;;;15.99;67.54;100841.13;5111182;27;45595;-54
2023/08/27 04:33:43;;;;;;;;;0.33;0.33;;;;;15.98;67.64;100850.13;5104668;27;45525;-55
2023/08/27 04:36:08;;;;;;;;;0.00;0.00;;;;;15.98;67.60;100850.13;5111037;27;46724;-54
2023/08/27 04:38:33;;;;;;;;;1.00;1.00;;;;;15.97;67.24;100853.75;5075695;27;54160;-55
2023/08/27 04:40:59;;;;;;;;;1.33;1.00;;;;;15.95;67.28;100859.25;5103928;27;45598;-53
2023/08/27 04:43:24;;;;;;;;;1.00;1.00;;;;;15.92;67.50;100855.91;5093469;27;59935;-54
2023/08/27 04:45:49;;;;;;;;;1.00;1.00;;;;;15.90;67.53;100861.41;5096716;27;67495;-55
2023/08/27 04:48:15;;;;;;;;;1.00;1.00;;;;;15.88;67.60;100861.50;5097174;27;54699;-55
2023/08/27 04:50:43;;;;;;;;;0.33;0.33;;;;;15.88;67.75;100866.03;5096222;27;69873;-54
2023/08/27 04:53:09;;;;;;;;;1.00;1.00;;;;;15.86;67.88;100873.31;5079067;27;45404;-54
2023/08/27 04:55:34;;;;;;;;;0.00;0.00;;;;;15.85;68.19;100871.59;5096432;27;65849;-53
2023/08/27 04:58:00;;;;;;;;;2.00;0.33;;;;;15.84;68.22;100869.91;5096722;27;46454;-55
2023/08/27 05:00:25;;;;;;;;;1.00;1.00;;;;;15.82;67.63;100874.50;5095315;27;73950;-55
2023/08/27 05:02:50;;;;;;;;;2.00;1.00;;;;;15.79;67.82;100872.88;5096799;27;46032;-54
2023/08/27 05:05:16;;;;;;;;;1.33;1.00;;;;;15.76;68.31;100875.78;5096891;27;59660;-54
2023/08/27 05:07:42;;;;;;;;;1.00;1.00;;;;;15.75;68.22;100875.88;5096345;27;46262;-53
2023/08/27 05:10:07;;;;;;;;;1.00;1.00;;;;;15.73;68.02;100872.44;5097610;27;46756;-54
2023/08/27 05:12:33;;;;;;;;;1.00;1.00;;;;;15.70;67.64;100869.00;5080401;27;45398;-54
2023/08/27 05:14:58;;;;;;;;;1.00;1.00;;;;;15.70;67.81;100866.31;5097267;27;45672;-55
2023/08/27 05:17:23;;;;;;;;;1.00;1.00;;;;;15.71;67.52;100872.56;5093528;27;73873;-54
2023/08/27 05:19:49;;;;;;;;;2.67;1.00;;;;;15.72;68.13;100874.25;5096155;27;45489;-53
2023/08/27 05:22:14;;;;;;;;;2.00;2.00;;;;;15.74;68.51;100871.50;5098642;27;68630;-55
2023/08/27 05:24:39;;;;;;;;;1.00;1.00;;;;;15.76;68.46;100873.09;5099293;27;45280;-55
2023/08/27 05:27:05;;;;;;;;;3.33;1.67;;;;;15.81;68.98;100872.78;5098944;27;74408;-54
2023/08/27 05:29:30;;;;;;;;;1.00;1.00;;;;;15.85;68.47;100872.47;5073947;27;73658;-55
2023/08/27 05:31:55;;;;;;;;;1.67;1.00;;;;;15.91;68.75;100878.38;5098029;27;65376;-55
2023/08/27 05:34:21;;;;;;;;;0.67;0.67;;;;;15.94;68.26;100880.81;5096888;27;65742;-55
2023/08/27 05:36:46;;;;;;;;;1.00;1.00;;;;;16.00;67.88;100872.34;5078437;27;75777;-52
2023/08/27 05:39:13;;;;;;;;;1.67;1.00;;;;;16.02;67.65;100879.31;5100231;27;45416;-54
2023/08/27 05:41:39;;;;;;;;;0.33;0.33;;;;;16.03;68.20;100882.84;5099522;27;45557;-54
2023/08/27 05:44:04;;;;;;;;;1.00;1.00;;;;;16.08;67.89;100885.22;5099645;27;45605;-55
2023/08/27 05:46:31;;;;;;;;;1.67;0.00;;;;;16.16;67.63;100885.50;5098992;27;45327;-54
2023/08/27 05:48:56;;;;;;;;;2.00;1.00;;;;;16.23;67.66;100888.59;5099588;27;45529;-55
2023/08/27 05:51:21;;;;;;;;;1.00;1.00;;;;;16.29;67.48;100897.06;5099704;27;45323;-56
2023/08/27 05:53:47;;;;;;;;;2.00;1.00;;;;;16.36;66.76;100898.34;5097603;27;70009;-55
2023/08/27 05:56:12;;;;;;;;;1.00;1.00;;;;;16.41;67.03;100897.97;5098437;27;73993;-54
2023/08/27 05:58:37;;;;;;;;;1.00;1.00;;;;;16.45;67.10;100890.56;5098441;27;73567;-55
2023/08/27 06:01:02;;;;;;;;;2.67;1.00;;;;;16.50;66.36;100904.50;5098960;27;69163;-55
2023/08/27 06:03:28;;;;;;;;;1.00;1.00;;;;;16.56;66.45;100895.13;5097657;27;68360;-54
2023/08/27 06:05:53;;;;;;;;;1.00;1.00;;;;;16.61;66.19;100896.53;5098092;27;74014;-55
2023/08/27 06:08:19;;;;;;;;;1.00;1.00;;;;;16.66;66.34;100898.84;5098827;27;71911;-54
2023/08/27 06:10:45;;;;;;;;;1.00;1.00;;;;;16.70;66.53;100901.22;5080318;27;63840;-53
2023/08/27 06:13:10;;;;;;;;;1.00;1.00;;;;;16.76;66.12;100907.09;5099714;27;45327;-55
2023/08/27 06:15:37;;;;;;;;;1.00;1.00;;;;;16.80;65.94;100893.31;5098894;27;47056;-55
2023/08/27 06:18:03;;;;;;;;;1.00;1.00;;;;;16.87;65.68;100904.47;5099781;27;45367;-56
2023/08/27 06:20:29;;;;;;;;;2.00;1.00;;;;;16.96;65.28;100905.63;5099142;27;45587;-55
2023/08/27 06:22:54;;;;;;;;;1.67;1.00;;;;;17.00;65.25;100899.03;5098914;27;45485;-55
2023/08/27 06:25:22;;;;;;;;;0.00;0.00;;;;;17.11;65.43;100911.69;5100150;27;47014;-54
2023/08/27 06:27:48;;;;;;;;;1.00;1.00;;;;;17.19;65.07;100909.28;5098084;27;45673;-55
2023/08/27 06:30:14;;;;;;;;;2.33;1.67;;;;;17.28;64.87;100900.50;5077797;28;45555;-56
2023/08/27 06:32:39;;;;;;;;;2.00;1.33;;;;;17.44;64.51;100908.25;5078305;28;45448;-54
2023/08/27 06:35:05;;;;;;;;;1.00;0.33;;;;;19.04;64.00;100906.31;5067884;28;71526;-55
2023/08/27 06:37:30;;;;;;;;;1.00;1.00;;;;;21.54;60.97;100897.63;5075406;28;45802;-56
2023/08/27 06:39:55;;;;;;;;;1.00;1.00;;;;;23.56;55.83;100900.38;5078150;27;67364;-56
2023/08/27 06:42:20;;;;;;;;;1.00;0.00;;;;;25.32;52.03;100903.31;5076916;28;45636;-56
2023/08/27 06:44:46;;;;;;;;;0.67;0.67;;;;;26.18;49.30;100895.50;5077643;28;72157;-56
2023/08/27 06:47:11;;;;;;;;;2.00;1.67;;;;;26.04;46.87;100893.50;5076088;28;45781;-56
2023/08/27 06:49:36;;;;;;;;;1.00;1.00;;;;;26.04;47.08;100905.25;5076436;28;51819;-56
2023/08/27 06:52:02;;;;;;;;;3.67;0.33;;;;;26.67;46.00;100901.72;5061757;28;66136;-57
2023/08/27 06:54:27;;;;;;;;;5.00;1.00;;;;;27.17;45.17;100907.66;5076789;27;45515;-57
2023/08/27 06:56:53;;;;;;;;;0.33;0.33;;;;;26.66;44.24;100906.31;5068191;27;72984;-55
2023/08/27 06:59:18;;;;;;;;;1.00;1.00;;;;;27.78;43.53;100924.00;5078602;27;46215;-56
2023/08/27 07:01:43;;;;;;;;;1.00;1.00;;;;;27.18;41.66;100925.75;5076538;28;45501;-56
2023/08/27 07:04:09;;;;;;;;;1.00;1.00;;;;;27.48;41.94;100914.94;5076803;28;70953;-57
2023/08/27 07:06:34;;;;;;;;;0.00;0.00;;;;;27.77;41.04;100926.94;5076592;27;71325;-57
2023/08/27 07:09:00;;;;;;;;;0.75;0.75;;;;;27.12;40.80;100919.16;5074950;27;45456;-57
2023/08/27 07:11:25;;;;;;;;;0.00;0.00;;;;;27.11;41.54;100922.06;5073905;27;45394;-57
2023/08/27 07:13:50;;;;;;;;;0.00;0.00;;;;;27.22;42.60;100919.75;5075998;27;46069;-57
2023/08/27 07:16:16;;;;;;;;;1.75;1.00;;;;;27.50;42.13;100926.53;5077366;27;56086;-57
2023/08/27 07:18:42;;;;;;;;;3.00;1.00;;;;;27.86;40.67;100926.66;5074984;27;45479;-56
2023/08/27 07:21:07;;;;;;;;;2.25;0.75;;;;;28.61;40.64;100929.34;5058747;28;58323;-57
2023/08/27 07:23:32;;;;;;;;;0.50;0.50;;;;;29.93;38.61;100927.19;5072638;28;46907;-57
2023/08/27 07:25:58;;;;;;;;;1.00;1.00;;;;;30.14;37.86;100929.00;5077947;28;45420;-57
2023/08/27 07:28:23;;;;;;;;;3.00;1.25;;;;;30.27;36.82;100928.25;5077677;27;59915;-57
2023/08/27 07:30:51;;;;;;;;;0.25;0.25;;;;;29.82;36.86;100935.97;5098406;27;45609;-57
2023/08/27 07:33:17;;;;;;;;;1.00;1.00;;;;;30.55;36.81;100935.53;5097160;27;68179;-57
2023/08/27 07:35:43;;;;;;;;;1.00;1.00;;;;;30.92;35.47;100935.22;5077854;27;45790;-57
2023/08/27 07:38:08;;;;;;;;;4.00;1.00;;;;;31.62;34.61;100924.72;5096385;27;45751;-55
2023/08/27 07:40:36;;;;;;;;;2.25;1.00;;;;;31.25;33.97;100931.66;5097120;27;64548;-55
2023/08/27 07:43:02;;;;;;;;;1.00;1.00;;;;;32.56;33.89;100929.09;5091085;27;46186;-58
2023/08/27 07:45:27;;;;;;;;;2.25;1.50;;;;;34.60;32.07;100924.06;5075795;27;45463;-56
2023/08/27 07:47:52;;;;;;;;;0.75;0.75;;;;;35.52;30.71;100919.28;5093646;27;45445;-56
2023/08/27 07:50:18;;;;;;;;;0.25;0.25;;;;;36.43;28.89;100927.09;5094585;27;56737;-56
2023/08/27 07:52:43;;;;;;;;;2.00;2.00;;;;;36.99;28.84;100923.72;5077785;27;46249;-56
2023/08/27 07:55:09;;;;;;;;;2.25;1.00;;;;;37.36;27.36;100924.06;5090301;27;55400;-57
2023/08/27 07:57:34;;;;;;;;;1.50;1.00;;;;;36.58;27.19;100927.41;5079734;27;46222;-57
2023/08/27 07:59:59;;;;;;;;;0.00;0.00;;;;;37.05;27.55;100925.47;5098459;27;45441;-57
2023/08/27 08:02:25;;;;;;;;;0.00;0.00;;;;;36.80;26.76;100929.44;5065252;27;66882;-57
2023/08/27 08:04:50;;;;;;;;;0.25;0.00;;;;;37.44;26.69;100930.31;5095613;27;63772;-57
2023/08/27 08:07:15;;;;;;;;;0.50;0.00;;;;;37.36;25.61;100929.63;5096421;27;46020;-57
2023/08/27 08:09:41;;;;;;;;;1.00;0.50;;;;;35.55;26.73;100933.47;5086693;27;65274;-57
2023/08/27 08:12:07;;;;;;;;;2.75;0.00;;;;;33.82;28.12;100928.41;5097463;27;45988;-57
2023/08/27 08:14:33;;;;;;;;;0.25;0.25;;;;;32.67;29.51;100925.63;5092197;27;45417;-56
2023/08/27 08:16:58;;;;;;;;;0.50;0.50;;;;;31.37;30.37;100927.25;5101023;27;45523;-56
2023/08/27 08:19:23;;;;;;;;;0.00;0.00;;;;;30.28;31.49;100934.56;5086582;27;63881;-56
2023/08/27 08:21:49;;;;;;;;;0.75;0.00;;;;;29.30;32.87;100940.84;5096064;27;63862;-56
2023/08/27 08:24:14;;;;;;;;;0.00;0.00;;;;;28.71;34.40;100938.13;5100803;27;64027;-57
2023/08/27 08:26:39;;;;;;;;;1.50;1.00;;;;;28.01;34.44;100925.81;5098826;27;45757;-56
2023/08/27 08:29:05;;;;;;;;;2.00;0.00;;;;;27.30;35.34;100932.47;5098990;27;64364;-56
2023/08/27 08:31:30;;;;;;;;;1.00;1.00;;;;;26.78;36.32;100933.19;5099040;27;75567;-56
2023/08/27 08:33:56;;;;;;;;;1.00;0.00;;;;;26.42;36.99;100923.66;5100608;27;54534;-56
2023/08/27 08:36:21;;;;;;;;;1.00;0.50;;;;;26.06;37.68;100924.16;5099412;27;45542;-50
2023/08/27 08:38:47;;;;;;;;;4.00;1.75;;;;;25.80;38.18;100932.53;5099334;27;62359;-50
2023/08/27 08:41:16;;;;;;;;;1.00;1.00;;;;;26.26;37.63;100930.03;5100324;27;70840;-50
2023/08/27 08:43:44;;;;;;;;;0.00;0.00;;;;;27.02;37.69;100932.19;5081893;27;45383;-54
2023/08/27 08:46:10;;;;;;;;;0.00;0.00;;;;;27.36;36.24;100931.72;5097491;27;45343;-53
2023/08/27 08:48:41;;;;;;;;;4.00;1.00;;;;;26.81;36.15;100933.69;5096467;27;45633;-54
2023/08/27 08:51:07;;;;;;;;;0.75;0.75;;;;;26.21;36.97;100927.00;5100280;27;46316;-53
2023/08/27 08:53:37;;;;;;;;;1.00;1.00;;;;;25.81;37.64;100929.63;5100101;27;45528;-54
2023/08/27 08:56:06;;;;;;;;;0.00;0.00;;;;;25.44;38.52;100928.34;5099281;27;46912;-54
2023/08/27 08:58:35;;;;;;;;;0.50;0.50;;;;;25.05;39.51;100921.66;5074493;27;45445;-57
2023/08/27 09:01:02;;;;;;;;;1.00;1.00;;;;;25.24;39.57;100928.66;5098801;27;46781;-52
2023/08/27 09:03:30;;;;;;;;;0.00;0.00;;;;;27.61;36.00;100926.06;5080156;27;45586;-54
2023/08/27 09:05:55;;;;;;;;;0.00;0.00;;;;;30.39;34.51;100923.00;5081525;27;45313;-53
2023/08/27 09:08:21;;;;;;;;;0.00;0.00;;;;;31.43;32.17;100923.66;5080610;27;69474;-59
2023/08/27 09:10:49;;;;;;;;;1.00;1.00;;;;;33.14;30.18;100923.47;5080119;27;67407;-52
2023/08/27 09:13:18;;;;;;;;;1.25;0.00;;;;;32.99;29.21;100931.19;5100241;27;45256;-52
2023/08/27 09:15:44;;;;;;;;;0.00;0.00;;;;;32.55;30.38;100924.66;5097059;27;45578;-52
2023/08/27 09:18:09;;;;;;;;;1.00;1.00;;;;;33.52;29.45;100926.34;5095107;27;63211;-53
2023/08/27 09:20:35;;;;;;;;;1.25;1.25;;;;;33.17;29.22;100932.31;5098830;27;46363;-57
2023/08/27 09:23:01;;;;;;;;;1.50;1.00;;;;;33.67;29.39;100937.84;5096585;27;45759;-55
2023/08/27 09:25:27;;;;;;;;;1.00;1.00;;;;;33.92;28.34;100946.13;5093393;27;45637;-55
2023/08/27 09:27:53;;;;;;;;;0.00;0.00;;;;;32.80;28.97;100936.63;5098424;27;45410;-54
2023/08/27 09:30:19;;;;;;;;;1.00;1.00;;;;;31.95;29.86;100940.28;5090334;27;46622;-57
2023/08/27 09:32:45;;;;;;;;;0.75;0.75;;;;;30.63;30.27;100945.50;5096267;27;45480;-57
2023/08/27 09:35:11;;;;;;;;;0.25;0.25;;;;;29.63;32.29;100948.47;5098418;27;45447;-56
2023/08/27 09:37:41;;;;;;;;;1.00;1.00;;;;;30.39;32.17;100950.44;5081767;27;45594;-57
2023/08/27 09:40:11;;;;;;;;;2.50;1.00;;;;;30.79;30.67;100952.50;5100872;27;46813;-57
2023/08/27 09:42:39;;;;;;;;;2.00;1.00;;;;;29.96;32.21;100965.19;5091759;27;45482;-58
2023/08/27 09:45:05;;;;;;;;;1.00;1.00;;;;;29.56;32.78;100953.91;5095570;27;45146;-57
2023/08/27 09:47:33;;;;;;;;;1.25;1.25;;;;;30.08;32.13;100959.97;5094771;27;45620;-57
2023/08/27 09:50:06;;;;;;;;;2.25;1.00;;;;;31.41;31.04;100952.41;5100460;27;46152;-57
2023/08/27 09:52:32;;;;;;;;;1.00;0.75;;;;;33.01;29.57;100951.09;5099897;27;45317;-57
2023/08/27 09:54:57;;;;;;;;;0.50;0.50;;;;;34.51;28.19;100950.31;5095941;27;45503;-57
2023/08/27 09:57:22;;;;;;;;;1.00;1.00;;;;;35.68;26.97;100956.41;5100202;27;45402;-57
2023/08/27 09:59:48;;;;;;;;;0.50;0.00;;;;;36.78;25.27;100947.41;5099581;27;64784;-57
2023/08/27 10:02:17;;;;;;;;;0.75;0.75;;;;;37.90;25.27;100955.97;5094410;27;66706;-57
2023/08/27 10:04:56;;;;;;;;;1.00;1.00;;;;;38.86;24.50;100945.50;5090433;27;45457;-57
2023/08/27 10:07:22;;;;;;;;;0.00;0.00;;;;;38.07;23.46;100955.94;5099440;27;45696;-57
2023/08/27 10:09:53;;;;;;;;;2.00;0.75;;;;;37.22;23.73;100948.53;5099947;27;46967;-57
2023/08/27 10:12:20;;;;;;;;;0.00;0.00;;;;;35.81;25.35;100952.56;5100175;27;45658;-57
2023/08/27 10:14:46;;;;;;;;;1.20;0.00;;;;;33.92;27.38;100961.81;5100228;27;45335;-57
2023/08/27 10:17:14;;;;;;;;;0.75;0.75;;;;;32.01;27.22;100957.84;5100302;27;45450;-58
2023/08/27 10:19:40;;;;;;;;;0.00;0.00;;;;;30.62;28.96;100963.00;5099354;27;47204;-57
2023/08/27 10:22:05;;;;;;;;;0.75;0.75;;;;;29.61;30.18;100962.38;5098331;27;45369;-57
2023/08/27 10:24:31;;;;;;;;;1.00;1.00;;;;;28.80;30.87;100960.75;5097782;27;45420;-57
2023/08/27 10:27:06;;;;;;;;;1.00;0.00;;;;;28.73;31.38;100957.06;5099686;27;45487;-57
2023/08/27 10:29:33;;;;;;;;;2.25;0.00;;;;;30.26;31.26;100961.31;5081266;27;67830;-57
2023/08/27 10:31:58;;;;;;;;;0.00;0.00;;;;;31.91;29.44;100963.78;5098497;27;45288;-57
2023/08/27 10:34:27;;;;;;;;;0.50;0.50;;;;;33.39;28.35;100965.88;5099193;27;45567;-57
2023/08/27 10:36:52;;;;;;;;;1.50;1.50;;;;;34.34;26.97;100964.78;5099457;27;45437;-57
2023/08/27 10:39:24;;;;;;;;;3.25;1.00;;;;;34.34;26.75;100959.25;5099102;27;46101;-57
2023/08/27 10:41:49;;;;;;;;;0.40;0.40;;;;;34.16;26.35;100956.44;5081633;27;45397;-57
2023/08/27 10:44:22;;;;;;;;;0.00;0.00;;;;;34.63;25.71;100965.03;5099235;27;61687;-57
2023/08/27 10:47:06;;;;;;;;;0.00;0.00;;;;;35.72;24.78;100960.38;5079616;27;45270;-57
2023/08/27 10:49:36;;;;;;;;;0.25;0.25;;;;;36.78;24.53;100961.25;5097141;27;46171;-57
2023/08/27 10:52:12;;;;;;;;;0.40;0.40;;;;;37.42;23.50;100961.06;5097348;27;45548;-57
2023/08/27 10:54:38;;;;;;;;;1.00;0.00;;;;;36.65;23.88;100959.63;5099249;27;45711;-58
2023/08/27 10:57:17;;;;;;;;;0.00;0.00;;;;;35.04;23.60;100954.28;5099754;27;45533;-57
2023/08/27 10:59:43;;;;;;;;;0.00;0.00;;;;;33.60;25.16;100948.13;5095985;27;46307;-58
2023/08/27 11:02:08;;;;;;;;;0.00;0.00;;;;;32.42;26.23;100951.16;5081466;27;45349;-57
2023/08/27 11:04:39;;;;;;;;;0.00;0.00;;;;;31.40;27.56;100957.03;5099273;27;45334;-57
2023/08/27 11:07:15;;;;;;;;;0.00;0.00;;;;;30.38;27.28;100956.97;5094158;27;45512;-58
2023/08/27 11:09:54;;;;;;;;;0.00;0.00;;;;;29.45;28.93;100957.19;5098533;27;46364;-57
2023/08/27 11:12:27;;;;;;;;;0.00;0.00;;;;;28.64;29.25;100955.47;5099572;27;45371;-57
2023/08/27 11:14:54;;;;;;;;;0.00;0.00;;;;;27.84;29.63;100966.97;5099632;27;45414;-57
2023/08/27 11:17:28;;;;;;;;;0.00;0.00;;;;;27.21;30.61;100961.72;5099308;27;45508;-57
2023/08/27 11:19:54;;;;;;;;;0.00;0.00;;;;;26.64;31.21;100960.19;5097799;27;46333;-57